Time;durP1;ratioP1;P1;durP2;ratioP2;P2;SDS_P1;SDS_P2;PMS_P1;PMS_P2;Temp;Humidity;BMP_temperature;BMP_pressure;BME280_temperature;BME280_humidity;BME280_pressure;Samples;Min_cycle;Max_cycle;Signal;HPM_P1;HPM_P2
2022/03/10 00:01:53;;;;;;;9.77;4.73;;;17.80;36.10;;;;;;4997736;28;89453;-69
2022/03/10 00:04:24;;;;;;;8.73;4.90;;;17.80;36.10;;;;;;4999350;28;90456;-69
2022/03/10 00:06:52;;;;;;;7.73;5.00;;;17.80;36.90;;;;;;4999299;28;88633;-70
2022/03/10 00:09:20;;;;;;;7.47;4.40;;;17.80;36.20;;;;;;4998544;28;88587;-70
2022/03/10 00:11:47;;;;;;;8.73;4.60;;;17.80;36.30;;;;;;4998258;28;90671;-70
2022/03/10 00:14:16;;;;;;;7.63;4.37;;;17.80;36.40;;;;;;4998714;28;88571;-69
2022/03/10 00:16:44;;;;;;;7.33;5.07;;;17.80;36.40;;;;;;4998668;28;88414;-69
2022/03/10 00:19:12;;;;;;;7.00;4.03;;;17.80;36.50;;;;;;4998856;28;88607;-69
2022/03/10 00:21:44;;;;;;;8.20;4.83;;;17.80;36.50;;;;;;4997898;28;89317;-69
2022/03/10 00:24:12;;;;;;;7.30;4.87;;;17.80;36.50;;;;;;4998711;28;90158;-69
2022/03/10 00:26:41;;;;;;;10.53;4.97;;;17.80;36.60;;;;;;4998581;28;91372;-70
2022/03/10 00:29:09;;;;;;;6.87;4.33;;;17.80;36.60;;;;;;4998557;28;88668;-70
2022/03/10 00:31:37;;;;;;;9.50;5.17;;;17.80;36.60;;;;;;4999049;28;90775;-70
2022/03/10 00:34:06;;;;;;;7.70;4.13;;;17.80;36.70;;;;;;4997726;28;89507;-69
2022/03/10 00:36:34;;;;;;;7.67;4.23;;;17.80;36.70;;;;;;5001924;28;88543;-70
2022/03/10 00:39:04;;;;;;;6.50;4.07;;;17.80;36.70;;;;;;5001854;28;88134;-69
2022/03/10 00:41:32;;;;;;;7.63;4.63;;;17.80;36.80;;;;;;5002439;28;92887;-69
2022/03/10 00:44:00;;;;;;;7.50;4.50;;;17.80;36.80;;;;;;5001937;28;90106;-69
2022/03/10 00:46:31;;;;;;;9.27;5.03;;;18.00;37.10;;;;;;5001657;28;88909;-69
2022/03/10 00:49:01;;;;;;;9.43;5.17;;;17.80;36.90;;;;;;5002126;28;88388;-69
2022/03/10 00:51:31;;;;;;;10.23;4.83;;;17.80;36.90;;;;;;5001919;28;89972;-69
2022/03/10 00:53:59;;;;;;;9.37;4.97;;;17.90;37.00;;;;;;5000827;28;90225;-70
2022/03/10 00:56:29;;;;;;;8.53;4.97;;;17.80;37.00;;;;;;5001252;28;88377;-70
2022/03/10 00:58:57;;;;;;;8.53;5.00;;;17.80;37.00;;;;;;5001901;28;88526;-69
2022/03/10 01:01:25;;;;;;;6.87;5.17;;;17.80;37.00;;;;;;4985843;28;90131;-69
2022/03/10 01:03:53;;;;;;;7.53;4.50;;;17.80;37.10;;;;;;4996854;28;90110;-69
2022/03/10 01:06:21;;;;;;;7.93;4.87;;;17.80;37.10;;;;;;5002109;28;88309;-69
2022/03/10 01:08:49;;;;;;;8.63;4.43;;;17.80;37.10;;;;;;4989487;28;88454;-69
2022/03/10 01:11:17;;;;;;;9.47;5.60;;;17.80;37.10;;;;;;4982443;28;89990;-69
2022/03/10 01:13:47;;;;;;;6.67;4.80;;;17.80;37.10;;;;;;4992345;28;90188;-70
2022/03/10 01:16:15;;;;;;;7.13;4.73;;;17.80;37.10;;;;;;5001286;28;89180;-69
2022/03/10 01:18:43;;;;;;;7.83;4.90;;;17.80;37.10;;;;;;5001490;28;88624;-69
2022/03/10 01:21:13;;;;;;;9.73;4.70;;;17.80;37.10;;;;;;4993655;28;89607;-70
2022/03/10 01:23:41;;;;;;;8.50;5.50;;;17.80;37.20;;;;;;4982413;28;93118;-70
2022/03/10 01:26:11;;;;;;;9.17;5.77;;;17.80;37.20;;;;;;4981411;28;88337;-70
2022/03/10 01:28:39;;;;;;;6.80;4.37;;;17.70;37.10;;;;;;4981556;28;88558;-70
2022/03/10 01:31:09;;;;;;;10.73;5.00;;;17.80;37.20;;;;;;4988485;28;92939;-70
2022/03/10 01:33:38;;;;;;;11.00;5.07;;;17.70;37.20;;;;;;5000997;28;91204;-70
2022/03/10 01:36:07;;;;;;;9.93;5.10;;;17.70;37.20;;;;;;4992826;28;88402;-69
2022/03/10 01:38:39;;;;;;;7.53;5.43;;;17.70;37.20;;;;;;4992295;28;88578;-70
2022/03/10 01:41:07;;;;;;;7.33;5.27;;;17.70;37.30;;;;;;4999561;28;90984;-70
2022/03/10 01:43:45;;;;;;;8.53;4.77;;;17.70;37.30;;;;;;4991965;28;89814;-70
2022/03/10 01:46:14;;;;;;;9.50;5.43;;;17.70;37.30;;;;;;4999972;28;88897;-70
2022/03/10 01:48:43;;;;;;;8.23;5.50;;;17.70;37.30;;;;;;5000788;28;88519;-70
2022/03/10 01:51:12;;;;;;;9.57;5.10;;;17.80;37.30;;;;;;4982196;28;91846;-70
2022/03/10 01:53:40;;;;;;;8.53;5.13;;;17.70;37.30;;;;;;4981436;28;89631;-70
2022/03/10 01:56:08;;;;;;;9.77;5.70;;;17.80;37.40;;;;;;4988916;28;88444;-70
2022/03/10 01:58:36;;;;;;;9.07;5.03;;;17.80;37.40;;;;;;4961885;28;88559;-70
2022/03/10 02:01:05;;;;;;;10.67;5.83;;;17.80;37.40;;;;;;4967863;28;91665;-70
2022/03/10 02:03:35;;;;;;;9.37;5.10;;;17.80;37.40;;;;;;4980641;28;90295;-69
2022/03/10 02:06:03;;;;;;;10.03;5.50;;;17.80;37.50;;;;;;4980078;28;88784;-70
2022/03/10 02:11:20;;;;;;;9.07;5.23;;;17.70;37.40;;;;;;4978484;28;90527;-69
2022/03/10 02:13:48;;;;;;;9.50;5.40;;;17.70;37.40;;;;;;4980617;28;89020;-70
2022/03/10 02:19:04;;;;;;;6.37;4.40;;;17.80;37.50;;;;;;4961416;28;88453;-69
2022/03/10 02:21:34;;;;;;;9.20;5.50;;;17.70;37.40;;;;;;4976428;28;90724;-69
2022/03/10 02:24:04;;;;;;;9.17;5.50;;;17.70;37.50;;;;;;4981136;28;88479;-69
2022/03/10 02:26:32;;;;;;;7.57;5.30;;;17.70;37.50;;;;;;4980360;28;89854;-70
2022/03/10 02:29:01;;;;;;;7.50;4.83;;;17.70;37.50;;;;;;4980141;28;88378;-69
2022/03/10 02:31:29;;;;;;;8.30;5.20;;;17.70;37.50;;;;;;4979802;28;92989;-69
2022/03/10 02:33:58;;;;;;;9.93;5.53;;;17.70;37.50;;;;;;4979978;28;92248;-70
2022/03/10 02:36:26;;;;;;;7.67;5.00;;;17.70;37.60;;;;;;4980307;28;88819;-70
2022/03/10 02:38:54;;;;;;;10.10;5.30;;;17.70;37.60;;;;;;4980097;28;88622;-69
2022/03/10 02:41:24;;;;;;;8.27;5.23;;;17.70;37.60;;;;;;4977700;28;88575;-69
2022/03/10 02:43:53;;;;;;;11.90;5.30;;;17.70;37.60;;;;;;4980771;28;91116;-70
2022/03/10 02:46:21;;;;;;;9.17;5.53;;;17.70;37.60;;;;;;4979893;28;88604;-69
2022/03/10 02:48:49;;;;;;;9.37;5.00;;;17.70;37.60;;;;;;4980939;28;88494;-69
2022/03/10 02:51:17;;;;;;;8.83;5.23;;;17.70;37.60;;;;;;4980409;28;90596;-69
2022/03/10 02:53:45;;;;;;;12.60;5.30;;;17.70;37.60;;;;;;4980313;28;90043;-69
2022/03/10 02:56:15;;;;;;;6.77;4.90;;;17.70;37.60;;;;;;4979907;28;92800;-70
2022/03/10 02:58:45;;;;;;;6.43;4.20;;;17.70;37.70;;;;;;4994689;28;88801;-70
2022/03/10 03:01:13;;;;;;;7.70;4.90;;;17.60;37.60;;;;;;4998353;28;92323;-70
2022/03/10 03:03:41;;;;;;;8.87;5.23;;;17.60;37.60;;;;;;4998578;28;90265;-69
2022/03/10 03:06:09;;;;;;;10.50;6.07;;;17.40;37.40;;;;;;4999116;28;88820;-69
2022/03/10 03:08:37;;;;;;;11.90;4.83;;;17.60;37.60;;;;;;4998314;28;88738;-70
2022/03/10 03:11:05;;;;;;;7.20;4.97;;;17.70;37.70;;;;;;4999535;28;92557;-70
2022/03/10 03:13:33;;;;;;;8.73;5.77;;;17.60;37.60;;;;;;4999350;28;91350;-70
2022/03/10 03:16:02;;;;;;;8.93;4.73;;;17.60;37.60;;;;;;4999355;28;89966;-70
2022/03/10 03:18:30;;;;;;;8.20;5.07;;;17.60;37.60;;;;;;4999358;28;88525;-69
2022/03/10 03:20:58;;;;;;;8.37;4.53;;;17.60;37.60;;;;;;4999353;28;89474;-69
2022/03/10 03:23:26;;;;;;;5.67;3.93;;;17.70;37.70;;;;;;4999821;28;89413;-70
2022/03/10 03:25:54;;;;;;;8.83;4.87;;;17.60;37.60;;;;;;4997880;28;88480;-69
2022/03/10 03:28:22;;;;;;;6.37;4.90;;;17.60;37.60;;;;;;4999894;28;88637;-69
2022/03/10 03:30:50;;;;;;;6.20;4.40;;;17.60;37.60;;;;;;4998951;28;93867;-70
2022/03/10 03:33:20;;;;;;;8.77;4.93;;;17.60;37.60;;;;;;4999212;28;89512;-70
2022/03/10 03:35:50;;;;;;;9.87;5.30;;;17.60;37.60;;;;;;4999845;28;88351;-69
2022/03/10 03:38:18;;;;;;;7.97;4.50;;;17.60;37.60;;;;;;5000079;28;88438;-69
2022/03/10 03:40:46;;;;;;;6.20;4.07;;;17.60;37.60;;;;;;4997286;28;90172;-69
2022/03/10 03:43:14;;;;;;;8.60;4.43;;;17.60;38.30;;;;;;4997424;28;89501;-69
2022/03/10 03:45:42;;;;;;;7.17;4.00;;;17.60;37.60;;;;;;4999791;28;89188;-69
2022/03/10 03:48:10;;;;;;;9.17;4.70;;;17.60;37.60;;;;;;4998883;28;88534;-69
2022/03/10 03:50:40;;;;;;;9.57;4.37;;;17.60;37.60;;;;;;4998832;28;92423;-69
2022/03/10 03:53:10;;;;;;;11.67;5.37;;;17.60;37.60;;;;;;4999118;28;90177;-70
2022/03/10 03:55:39;;;;;;;10.57;5.43;;;17.60;37.60;;;;;;4998723;28;88838;-70
2022/03/10 03:58:07;;;;;;;7.00;4.37;;;17.60;37.60;;;;;;4997721;28;88590;-70
2022/03/10 04:00:36;;;;;;;7.53;4.40;;;17.60;37.60;;;;;;4981891;28;90867;-69
2022/03/10 04:03:08;;;;;;;7.80;4.67;;;17.60;38.20;;;;;;4999878;28;88729;-70
2022/03/10 04:05:37;;;;;;;9.87;5.13;;;17.60;37.60;;;;;;4997330;28;88418;-69
2022/03/10 04:08:07;;;;;;;6.70;4.87;;;17.60;37.60;;;;;;4982481;28;88606;-70
2022/03/10 04:10:36;;;;;;;7.27;4.00;;;17.60;37.60;;;;;;5000720;28;89507;-70
2022/03/10 04:13:05;;;;;;;10.97;5.00;;;17.60;37.60;;;;;;4999439;28;88809;-69
2022/03/10 04:15:34;;;;;;;9.30;5.17;;;17.50;37.50;;;;;;4996943;28;88359;-69
2022/03/10 04:18:02;;;;;;;9.47;4.97;;;17.60;37.50;;;;;;5001362;28;88840;-72
2022/03/10 04:20:30;;;;;;;9.57;4.97;;;17.50;37.50;;;;;;5000428;28;89902;-70
2022/03/10 04:22:58;;;;;;;7.17;4.70;;;17.50;37.50;;;;;;4983272;28;89698;-69
2022/03/10 04:25:28;;;;;;;7.57;4.47;;;17.50;37.50;;;;;;4984858;28;89056;-70
2022/03/10 04:27:56;;;;;;;12.13;5.70;;;17.50;37.50;;;;;;5003405;28;88478;-69
2022/03/10 04:30:25;;;;;;;8.53;4.90;;;17.50;37.50;;;;;;5000734;28;90630;-70
2022/03/10 04:32:56;;;;;;;9.80;5.80;;;17.50;37.50;;;;;;4983364;28;89373;-70
2022/03/10 04:35:25;;;;;;;6.87;4.43;;;17.40;37.40;;;;;;4994601;28;89269;-70
2022/03/10 04:37:53;;;;;;;8.30;3.87;;;17.50;37.50;;;;;;5000317;28;88660;-70
2022/03/10 04:40:24;;;;;;;9.70;5.10;;;17.40;37.40;;;;;;4982378;28;91075;-69
2022/03/10 04:42:53;;;;;;;7.57;3.90;;;17.40;37.40;;;;;;4996710;28;89527;-69
2022/03/10 04:45:21;;;;;;;9.37;4.50;;;17.10;37.20;;;;;;4982542;28;90107;-69
2022/03/10 04:47:49;;;;;;;8.57;4.60;;;17.40;37.40;;;;;;4983846;28;88626;-70
2022/03/10 04:50:19;;;;;;;11.20;5.73;;;17.40;37.40;;;;;;4982997;28;88593;-70
2022/03/10 04:52:47;;;;;;;8.33;5.00;;;17.30;37.30;;;;;;5002600;28;88404;-72
2022/03/10 04:55:18;;;;;;;10.17;5.33;;;17.40;37.40;;;;;;5000985;28;88478;-72
2022/03/10 04:57:53;;;;;;;7.73;5.10;;;17.40;37.30;;;;;;4979015;28;88696;-72
2022/03/10 05:00:22;;;;;;;7.97;4.80;;;17.40;37.30;;;;;;4981856;28;92570;-72
2022/03/10 05:02:51;;;;;;;7.10;4.47;;;17.40;37.30;;;;;;4982039;28;90002;-72
2022/03/10 05:05:19;;;;;;;8.30;4.30;;;17.30;37.30;;;;;;4981209;28;89731;-72
2022/03/10 05:07:47;;;;;;;9.60;4.70;;;17.30;37.20;;;;;;4982347;28;88677;-72
2022/03/10 05:10:15;;;;;;;6.63;3.90;;;17.30;37.20;;;;;;4981207;28;92592;-72
2022/03/10 05:12:50;;;;;;;6.87;3.93;;;17.30;37.20;;;;;;4980514;28;88947;-72
2022/03/10 05:15:19;;;;;;;7.80;4.40;;;17.30;37.30;;;;;;4980957;28;88443;-72
2022/03/10 05:17:48;;;;;;;10.13;5.03;;;17.30;37.20;;;;;;4980873;28;88607;-72
2022/03/10 05:20:17;;;;;;;9.17;4.90;;;17.30;37.20;;;;;;4980689;28;89551;-71
2022/03/10 05:22:46;;;;;;;8.27;4.93;;;17.30;37.20;;;;;;4981249;28;89104;-71
2022/03/10 05:25:14;;;;;;;6.83;4.97;;;17.30;37.20;;;;;;4980642;28;89003;-72
2022/03/10 05:27:42;;;;;;;9.83;5.20;;;17.30;37.20;;;;;;4982161;28;88442;-71
2022/03/10 05:30:11;;;;;;;7.77;4.80;;;17.30;37.20;;;;;;4981420;28;89887;-72
2022/03/10 05:32:39;;;;;;;8.73;5.30;;;17.30;37.20;;;;;;4981219;28;92064;-72
2022/03/10 05:35:09;;;;;;;8.70;4.67;;;17.30;37.20;;;;;;4980279;28;89418;-72
2022/03/10 05:37:40;;;;;;;9.23;5.63;;;17.30;37.20;;;;;;4980796;28;88598;-72
2022/03/10 05:40:09;;;;;;;9.07;6.30;;;17.30;37.10;;;;;;4982322;28;92484;-72
2022/03/10 05:42:42;;;;;;;10.23;5.70;;;17.20;37.00;;;;;;4980624;28;89165;-72
2022/03/10 05:45:11;;;;;;;8.63;5.10;;;17.20;37.00;;;;;;4981174;28;89027;-72
2022/03/10 05:47:39;;;;;;;8.93;5.33;;;17.20;37.00;;;;;;4981135;28;88403;-71
2022/03/10 05:50:10;;;;;;;7.17;4.63;;;17.20;37.00;;;;;;4981779;28;91079;-72
2022/03/10 05:52:38;;;;;;;7.70;5.63;;;17.20;37.00;;;;;;4979983;28;90153;-72
2022/03/10 05:55:06;;;;;;;11.63;5.13;;;17.20;37.00;;;;;;4980798;28;88394;-72
2022/03/10 05:57:34;;;;;;;6.27;4.60;;;17.20;37.00;;;;;;4988419;28;88491;-72
2022/03/10 06:00:02;;;;;;;9.03;5.50;;;17.20;37.00;;;;;;5001588;28;90632;-71
2022/03/10 06:02:31;;;;;;;9.50;5.07;;;17.40;37.10;;;;;;5000037;28;91005;-71
2022/03/10 06:05:01;;;;;;;9.23;4.80;;;17.10;36.90;;;;;;5000862;28;88614;-71
2022/03/10 06:07:30;;;;;;;9.90;5.07;;;17.10;36.90;;;;;;5000317;28;88669;-71
2022/03/10 06:09:58;;;;;;;6.57;5.00;;;17.10;36.90;;;;;;5000777;28;90616;-72
2022/03/10 06:12:27;;;;;;;9.00;5.23;;;17.20;37.00;;;;;;4998543;28;90084;-72
2022/03/10 06:14:55;;;;;;;9.17;4.90;;;17.20;37.00;;;;;;4998050;28;88658;-72
2022/03/10 06:17:23;;;;;;;10.17;6.27;;;17.10;36.90;;;;;;4999395;28;88689;-71
2022/03/10 06:19:52;;;;;;;10.77;5.43;;;17.10;36.90;;;;;;5000479;28;90687;-71
2022/03/10 06:22:20;;;;;;;8.30;5.50;;;17.10;36.90;;;;;;5000339;28;88838;-72
2022/03/10 06:24:49;;;;;;;8.43;5.10;;;17.20;37.00;;;;;;5000187;28;90807;-72
2022/03/10 06:27:18;;;;;;;10.37;5.57;;;17.10;36.90;;;;;;4999815;28;89931;-72
2022/03/10 06:29:46;;;;;;;10.57;4.93;;;17.30;37.10;;;;;;4997323;28;90267;-71
2022/03/10 06:32:16;;;;;;;8.13;5.07;;;17.10;36.90;;;;;;4997921;28;90092;-72
2022/03/10 06:34:45;;;;;;;10.10;5.40;;;17.10;36.90;;;;;;4999078;28;88847;-72
2022/03/10 06:37:13;;;;;;;9.07;5.97;;;17.10;36.90;;;;;;4999694;28;88507;-72
2022/03/10 06:39:41;;;;;;;8.83;5.37;;;17.10;36.80;;;;;;4999855;28;90202;-72
2022/03/10 06:42:10;;;;;;;8.50;5.40;;;17.10;36.80;;;;;;4998794;28;90015;-72
2022/03/10 06:44:39;;;;;;;10.33;5.27;;;17.10;36.80;;;;;;5000468;28;89029;-72
2022/03/10 06:47:08;;;;;;;7.93;5.07;;;17.10;36.80;;;;;;4998705;28;88614;-72
2022/03/10 06:49:36;;;;;;;14.13;6.50;;;17.10;36.80;;;;;;5000501;28;90696;-72
2022/03/10 06:52:05;;;;;;;10.70;4.97;;;17.10;36.80;;;;;;4999141;28;89986;-72
2022/03/10 06:54:32;;;;;;;9.93;5.60;;;17.10;36.80;;;;;;4999485;28;89671;-72
2022/03/10 06:57:01;;;;;;;10.20;5.07;;;17.10;36.70;;;;;;4998987;28;88685;-72
2022/03/10 06:59:30;;;;;;;8.50;4.70;;;17.10;36.80;;;;;;4999559;28;90226;-72
2022/03/10 07:01:58;;;;;;;9.30;6.27;;;17.10;36.70;;;;;;4998653;28;90005;-72
2022/03/10 07:04:26;;;;;;;8.90;5.83;;;17.10;36.70;;;;;;5000408;28;90098;-72
2022/03/10 07:06:54;;;;;;;9.70;6.47;;;17.10;36.80;;;;;;4999981;28;88361;-72
2022/03/10 07:09:22;;;;;;;11.00;6.50;;;17.10;36.80;;;;;;5000327;28;90551;-72
2022/03/10 07:11:50;;;;;;;9.03;5.43;;;17.10;37.40;;;;;;4999588;28;90744;-72
2022/03/10 07:14:18;;;;;;;9.80;5.23;;;17.10;36.70;;;;;;4998728;28;89581;-72
2022/03/10 07:16:47;;;;;;;13.90;6.13;;;17.10;36.70;;;;;;5000394;28;88394;-72
2022/03/10 07:19:16;;;;;;;10.60;5.27;;;17.10;36.70;;;;;;4999280;28;90611;-72
2022/03/10 07:21:44;;;;;;;11.00;6.10;;;17.20;36.70;;;;;;4998794;28;89006;-72
2022/03/10 07:24:12;;;;;;;7.50;4.83;;;17.20;36.60;;;;;;4999989;28;91832;-72
2022/03/10 07:26:40;;;;;;;9.97;5.50;;;17.20;36.60;;;;;;4998431;28;88691;-72
2022/03/10 07:29:08;;;;;;;9.00;5.30;;;17.20;36.60;;;;;;4999851;28;90519;-73
2022/03/10 07:31:36;;;;;;;11.33;6.33;;;17.20;36.50;;;;;;4999315;28;88901;-72
2022/03/10 07:34:06;;;;;;;12.97;5.93;;;17.10;36.50;;;;;;4999118;28;88710;-72
2022/03/10 07:36:34;;;;;;;9.80;5.90;;;17.10;36.50;;;;;;4998308;28;88819;-72
2022/03/10 07:39:02;;;;;;;10.97;6.23;;;17.10;36.40;;;;;;4998112;28;89050;-72
2022/03/10 07:41:30;;;;;;;12.43;6.07;;;17.10;36.40;;;;;;4998218;28;89303;-72
2022/03/10 07:43:59;;;;;;;10.87;5.00;;;17.10;36.40;;;;;;4999327;28;88587;-72
2022/03/10 07:46:27;;;;;;;8.77;5.27;;;17.10;36.40;;;;;;4999777;28;88390;-72
2022/03/10 07:48:56;;;;;;;10.60;6.33;;;17.10;36.40;;;;;;4999323;28;93723;-73
2022/03/10 07:51:25;;;;;;;9.97;6.17;;;17.20;36.40;;;;;;4998172;28;90123;-72
2022/03/10 07:53:53;;;;;;;10.70;5.53;;;17.10;36.40;;;;;;4998392;28;88513;-72
2022/03/10 07:56:21;;;;;;;11.37;6.10;;;17.10;36.40;;;;;;4999080;28;88378;-72
2022/03/10 07:58:50;;;;;;;10.17;6.50;;;17.10;36.40;;;;;;4998770;28;90640;-73
2022/03/10 08:01:18;;;;;;;9.73;5.10;;;17.20;36.40;;;;;;4998405;28;91723;-72
2022/03/10 08:03:47;;;;;;;9.17;5.63;;;17.10;36.40;;;;;;4998670;28;89088;-72
2022/03/10 08:06:15;;;;;;;10.33;6.43;;;17.10;36.40;;;;;;4998591;28;88168;-72
2022/03/10 08:08:44;;;;;;;10.60;5.67;;;17.10;36.40;;;;;;4998357;28;90213;-72
2022/03/10 08:11:13;;;;;;;9.00;5.43;;;17.10;36.50;;;;;;4995297;28;89671;-72
2022/03/10 08:13:41;;;;;;;7.13;5.03;;;17.20;36.50;;;;;;4996138;28;88609;-72
2022/03/10 08:16:10;;;;;;;7.70;4.47;;;17.20;36.60;;;;;;4997990;28;88600;-72
2022/03/10 08:18:39;;;;;;;9.57;5.83;;;17.20;36.60;;;;;;4998770;28;90918;-72
2022/03/10 08:21:07;;;;;;;13.00;5.80;;;17.20;36.60;;;;;;4998331;28;92710;-72
2022/03/10 08:23:35;;;;;;;9.57;5.33;;;17.20;36.60;;;;;;4999534;28;88342;-72
2022/03/10 08:26:04;;;;;;;8.33;4.90;;;17.20;36.60;;;;;;4999138;28;88516;-72
2022/03/10 08:28:33;;;;;;;7.07;4.93;;;17.20;36.70;;;;;;4998951;28;90827;-72
2022/03/10 08:31:02;;;;;;;7.20;4.77;;;17.20;36.70;;;;;;4997576;28;88517;-72
2022/03/10 08:33:30;;;;;;;8.30;5.40;;;17.20;36.70;;;;;;4998369;28;89393;-72
2022/03/10 08:35:58;;;;;;;9.60;5.30;;;17.20;36.70;;;;;;4998457;28;88473;-72
2022/03/10 08:38:26;;;;;;;8.43;5.10;;;17.20;36.70;;;;;;4998709;28;90744;-72
2022/03/10 08:40:54;;;;;;;9.37;6.40;;;17.20;36.80;;;;;;4998302;28;89929;-72
2022/03/10 08:43:28;;;;;;;9.97;5.60;;;17.20;36.70;;;;;;4997382;28;89799;-72
2022/03/10 08:45:56;;;;;;;10.30;5.23;;;17.20;36.90;;;;;;4998348;28;88526;-73
2022/03/10 08:48:24;;;;;;;7.20;5.47;;;17.20;36.80;;;;;;4998018;28;89397;-72
2022/03/10 08:50:52;;;;;;;8.63;5.30;;;17.30;36.90;;;;;;4997851;28;88988;-72
2022/03/10 08:53:22;;;;;;;9.37;6.20;;;17.20;37.40;;;;;;4998946;28;88251;-72
2022/03/10 08:55:53;;;;;;;8.40;5.23;;;17.20;36.80;;;;;;4998720;28;88366;-72
2022/03/10 08:58:29;;;;;;;7.23;5.00;;;17.20;36.80;;;;;;4995368;28;89582;-72
2022/03/10 09:00:57;;;;;;;6.87;4.60;;;17.20;36.80;;;;;;5000666;28;88878;-72
2022/03/10 09:03:45;;;;;;;9.20;4.80;;;17.30;36.90;;;;;;5000570;28;88422;-72
2022/03/10 09:06:14;;;;;;;8.07;4.87;;;17.20;36.90;;;;;;4999075;28;88629;-72
2022/03/10 09:08:48;;;;;;;7.97;4.93;;;17.20;36.90;;;;;;5001340;28;89273;-72
2022/03/10 09:11:16;;;;;;;8.67;4.77;;;17.20;36.90;;;;;;5001139;28;93518;-72
2022/03/10 09:13:48;;;;;;;8.27;4.13;;;17.30;37.00;;;;;;5000912;28;90099;-72
2022/03/10 09:16:16;;;;;;;8.53;5.17;;;17.30;37.00;;;;;;5001871;28;88490;-73
2022/03/10 09:18:46;;;;;;;8.17;5.00;;;17.30;37.00;;;;;;5001246;28;90561;-72
2022/03/10 09:21:14;;;;;;;7.23;5.03;;;17.30;37.00;;;;;;5000688;28;89983;-72
2022/03/10 09:23:42;;;;;;;9.07;5.90;;;17.30;37.10;;;;;;5000971;28;88900;-72
2022/03/10 09:26:10;;;;;;;9.97;5.07;;;17.30;37.10;;;;;;5001223;28;88441;-72
2022/03/10 09:28:38;;;;;;;7.37;4.70;;;17.30;37.00;;;;;;5001005;28;89606;-72
2022/03/10 09:31:08;;;;;;;7.83;5.83;;;17.30;37.70;;;;;;4999846;28;92705;-72
2022/03/10 09:33:36;;;;;;;6.63;5.13;;;17.30;37.00;;;;;;5000502;28;88814;-72
2022/03/10 09:36:05;;;;;;;10.10;5.23;;;17.30;37.00;;;;;;5000739;28;88693;-72
2022/03/10 09:38:33;;;;;;;9.37;5.23;;;17.30;37.00;;;;;;5001280;28;91810;-72
2022/03/10 09:41:01;;;;;;;10.90;4.30;;;17.30;37.00;;;;;;4999920;28;89007;-72
2022/03/10 09:43:31;;;;;;;9.07;5.13;;;17.30;37.00;;;;;;5000955;28;91827;-72
2022/03/10 09:45:59;;;;;;;7.90;5.10;;;17.30;37.10;;;;;;5000987;28;88552;-72
2022/03/10 09:48:29;;;;;;;6.00;4.50;;;17.40;37.20;;;;;;5000453;28;90326;-72
2022/03/10 09:50:59;;;;;;;11.63;5.20;;;17.40;37.20;;;;;;5001427;28;89765;-72
2022/03/10 09:53:30;;;;;;;11.80;5.13;;;17.40;37.20;;;;;;5000183;28;88543;-71
2022/03/10 09:55:58;;;;;;;7.20;4.60;;;17.40;37.20;;;;;;5000387;28;88652;-71
2022/03/10 09:58:26;;;;;;;11.97;5.50;;;17.40;37.30;;;;;;4990534;28;90420;-72
2022/03/10 10:00:59;;;;;;;7.90;5.17;;;17.40;37.30;;;;;;4980387;28;88903;-72
2022/03/10 10:03:28;;;;;;;10.50;5.00;;;17.40;37.30;;;;;;4979519;28;89516;-72
2022/03/10 10:06:00;;;;;;;9.77;4.97;;;17.40;37.30;;;;;;4981100;28;88477;-72
2022/03/10 10:08:30;;;;;;;8.90;4.73;;;17.40;37.30;;;;;;4980510;28;90803;-72
2022/03/10 10:11:00;;;;;;;9.23;5.23;;;17.40;37.30;;;;;;4978330;28;91926;-72
2022/03/10 10:13:29;;;;;;;9.10;4.50;;;17.40;37.40;;;;;;4981340;28;88922;-72
2022/03/10 10:15:58;;;;;;;7.53;4.50;;;17.40;37.40;;;;;;4980311;28;88677;-72
2022/03/10 10:18:27;;;;;;;7.03;5.73;;;17.40;37.40;;;;;;4980379;28;90894;-72
2022/03/10 10:21:20;;;;;;;8.93;5.00;;;17.50;37.60;;;;;;4979435;28;89815;-71
2022/03/10 10:23:49;;;;;;;7.27;4.73;;;17.50;37.60;;;;;;4980088;28;88790;-72
2022/03/10 10:26:18;;;;;;;9.73;4.53;;;17.50;37.60;;;;;;4980652;28;89497;-72
2022/03/10 10:28:49;;;;;;;6.60;4.63;;;17.50;37.70;;;;;;4979132;28;90840;-72
2022/03/10 10:31:18;;;;;;;7.73;4.40;;;17.50;37.70;;;;;;4977927;28;89489;-73
2022/03/10 10:34:02;;;;;;;7.90;5.03;;;17.50;37.70;;;;;;4980117;28;88762;-72
2022/03/10 10:36:32;;;;;;;9.83;4.83;;;17.50;37.70;;;;;;4980299;28;88525;-72
2022/03/10 10:39:08;;;;;;;7.57;5.10;;;17.50;37.80;;;;;;4978696;28;92350;-72
2022/03/10 10:41:37;;;;;;;7.73;4.87;;;17.50;37.80;;;;;;4980036;28;88846;-72
2022/03/10 10:44:07;;;;;;;8.80;4.80;;;17.50;37.80;;;;;;4980404;28;88852;-72
2022/03/10 10:46:37;;;;;;;12.87;6.27;;;17.60;38.00;;;;;;4980040;28;88430;-72
2022/03/10 10:49:06;;;;;;;11.60;5.00;;;17.60;38.00;;;;;;4979628;28;89511;-72
2022/03/10 10:51:38;;;;;;;7.20;4.67;;;17.60;38.00;;;;;;4980480;28;90025;-72
2022/03/10 10:54:07;;;;;;;9.07;4.93;;;17.60;38.10;;;;;;4979587;28;88351;-72
2022/03/10 10:56:36;;;;;;;8.77;4.90;;;17.60;38.10;;;;;;4979462;28;88682;-72
2022/03/10 10:59:04;;;;;;;11.07;4.73;;;17.60;38.10;;;;;;4978812;28;89622;-72
2022/03/10 11:01:36;;;;;;;7.93;4.60;;;17.60;38.10;;;;;;4979023;28;89994;-72
2022/03/10 11:04:05;;;;;;;8.40;5.37;;;17.60;38.20;;;;;;4980588;28;88793;-72
2022/03/10 11:06:37;;;;;;;8.53;4.57;;;17.70;38.90;;;;;;4980026;28;88474;-72
2022/03/10 11:09:05;;;;;;;9.03;4.47;;;17.70;38.30;;;;;;4979819;28;88472;-72
2022/03/10 11:11:34;;;;;;;8.50;5.60;;;17.70;38.30;;;;;;4978692;28;92998;-72
2022/03/10 11:14:02;;;;;;;7.83;4.77;;;17.70;38.30;;;;;;4980083;28;88390;-72
2022/03/10 11:16:31;;;;;;;7.30;4.27;;;17.70;38.40;;;;;;4979878;28;88445;-71
2022/03/10 11:19:13;;;;;;;9.97;5.30;;;17.70;38.40;;;;;;4959529;28;89328;-72
2022/03/10 11:21:52;;;;;;;12.27;6.07;;;17.70;38.50;;;;;;4971109;28;90083;-72
2022/03/10 11:24:33;;;;;;;7.20;4.40;;;17.80;38.50;;;;;;4979708;28;88962;-72
2022/03/10 11:27:06;;;;;;;7.60;5.27;;;17.80;38.50;;;;;;4978602;28;88449;-72
2022/03/10 11:29:35;;;;;;;7.67;4.77;;;17.70;38.50;;;;;;4979341;28;90572;-71
2022/03/10 11:32:06;;;;;;;7.67;4.47;;;17.80;38.60;;;;;;4978752;28;89197;-72
2022/03/10 11:34:48;;;;;;;10.40;4.70;;;17.80;38.70;;;;;;4979768;28;88487;-72
2022/03/10 11:37:50;;;;;;;7.57;4.70;;;17.80;38.70;;;;;;4977876;28;88893;-72
2022/03/10 11:40:20;;;;;;;5.83;4.17;;;17.80;38.70;;;;;;4978863;28;90567;-72
2022/03/10 11:42:59;;;;;;;9.10;4.73;;;17.90;38.80;;;;;;4978803;28;90069;-72
2022/03/10 11:45:29;;;;;;;8.30;5.30;;;17.90;38.80;;;;;;4978941;28;89568;-72
2022/03/10 11:48:17;;;;;;;10.53;5.17;;;17.90;38.80;;;;;;4980057;28;88509;-72
2022/03/10 11:50:45;;;;;;;8.03;4.97;;;17.90;38.80;;;;;;4978181;28;89447;-72
2022/03/10 11:53:15;;;;;;;9.13;4.37;;;17.90;38.80;;;;;;4979749;28;90098;-72
2022/03/10 11:55:45;;;;;;;10.10;5.77;;;17.90;38.80;;;;;;4978874;28;88469;-72
2022/03/10 11:58:17;;;;;;;7.47;4.93;;;18.00;38.90;;;;;;4979330;28;88670;-72
2022/03/10 12:00:50;;;;;;;10.07;5.60;;;18.00;38.90;;;;;;4978692;28;93344;-72
2022/03/10 12:03:20;;;;;;;13.50;5.87;;;18.00;39.00;;;;;;4978788;28;88454;-72
2022/03/10 12:05:52;;;;;;;12.03;5.60;;;18.00;39.00;;;;;;4977622;28;89057;-73
2022/03/10 12:08:22;;;;;;;11.00;5.57;;;18.10;39.10;;;;;;4978848;28;88648;-72
2022/03/10 12:10:50;;;;;;;8.53;4.73;;;18.10;39.00;;;;;;4976487;28;93556;-72
2022/03/10 12:13:28;;;;;;;10.20;5.73;;;18.10;39.00;;;;;;4975977;28;88919;-72
2022/03/10 12:15:56;;;;;;;9.40;5.30;;;18.20;39.20;;;;;;4978884;28;88861;-72
2022/03/10 12:18:30;;;;;;;8.83;4.83;;;18.20;39.10;;;;;;4979299;28;88105;-72
2022/03/10 12:20:58;;;;;;;10.47;5.07;;;18.20;39.10;;;;;;4978557;28;89731;-72
2022/03/10 12:23:29;;;;;;;7.30;5.07;;;18.20;39.00;;;;;;4978749;28;90257;-72
2022/03/10 12:26:00;;;;;;;11.23;5.20;;;18.20;39.00;;;;;;4979128;28;92264;-72
2022/03/10 12:28:31;;;;;;;10.43;4.70;;;18.20;38.90;;;;;;4979018;28;88513;-73
2022/03/10 12:31:14;;;;;;;9.13;4.77;;;18.30;39.00;;;;;;4978766;28;90797;-72
2022/03/10 12:33:51;;;;;;;7.50;4.07;;;18.30;39.00;;;;;;4981678;28;88984;-72
2022/03/10 12:36:35;;;;;;;8.53;5.27;;;18.30;38.90;;;;;;4980963;28;88402;-72
2022/03/10 12:39:06;;;;;;;10.43;4.70;;;18.30;39.00;;;;;;4981591;28;90396;-72
2022/03/10 12:41:35;;;;;;;11.67;5.60;;;18.40;39.10;;;;;;4981644;28;90683;-72
2022/03/10 12:44:05;;;;;;;10.97;4.87;;;18.40;39.10;;;;;;4981792;28;89030;-72
2022/03/10 12:46:34;;;;;;;8.60;5.47;;;18.40;39.00;;;;;;4981625;28;88484;-72
2022/03/10 12:49:20;;;;;;;7.93;4.50;;;18.40;39.10;;;;;;4982305;28;88918;-72
2022/03/10 12:51:48;;;;;;;8.43;5.03;;;18.40;39.10;;;;;;4980370;28;89578;-72
2022/03/10 12:54:18;;;;;;;8.47;4.70;;;18.40;39.00;;;;;;4981480;28;92065;-72
2022/03/10 12:56:47;;;;;;;10.33;4.93;;;18.50;39.20;;;;;;4981870;28;88887;-72
2022/03/10 12:59:25;;;;;;;13.63;5.57;;;18.50;39.20;;;;;;4996450;28;88759;-72
2022/03/10 13:01:52;;;;;;;8.53;4.90;;;18.50;39.10;;;;;;5001658;28;93101;-72
2022/03/10 13:04:21;;;;;;;9.07;5.30;;;18.60;39.20;;;;;;5000504;28;90114;-72